sensor_id;sensor_type;location;lat;lon;timestamp;P1;durP1;ratioP1;P2;durP2;ratioP2
49235;SDS011;35067;48.134;8.378;2022-11-11T00:01:12;3.97;;;3.20;;
49235;SDS011;35067;48.134;8.378;2022-11-11T00:03:14;7.73;;;3.20;;
49235;SDS011;35067;48.134;8.378;2022-11-11T00:05:16;4.97;;;2.90;;
49235;SDS011;35067;48.134;8.378;2022-11-11T00:07:16;4.57;;;2.87;;
49235;SDS011;35067;48.134;8.378;2022-11-11T00:09:17;4.40;;;2.77;;
49235;SDS011;35067;48.134;8.378;2022-11-11T00:11:18;5.30;;;2.97;;
49235;SDS011;35067;48.134;8.378;2022-11-11T00:13:19;4.03;;;2.90;;
49235;SDS011;35067;48.134;8.378;2022-11-11T00:15:20;3.67;;;3.20;;
49235;SDS011;35067;48.134;8.378;2022-11-11T00:17:20;4.00;;;2.53;;
49235;SDS011;35067;48.134;8.378;2022-11-11T00:19:39;3.67;;;2.80;;
49235;SDS011;35067;48.134;8.378;2022-11-11T00:21:59;3.60;;;2.70;;
49235;SDS011;35067;48.134;8.378;2022-11-11T00:24:19;6.33;;;3.00;;
49235;SDS011;35067;48.134;8.378;2022-11-11T00:26:42;4.77;;;2.90;;
49235;SDS011;35067;48.134;8.378;2022-11-11T00:28:43;3.63;;;2.80;;
49235;SDS011;35067;48.134;8.378;2022-11-11T00:30:44;4.47;;;2.50;;
49235;SDS011;35067;48.134;8.378;2022-11-11T00:32:45;3.03;;;2.60;;
49235;SDS011;35067;48.134;8.378;2022-11-11T00:34:45;3.63;;;2.50;;
49235;SDS011;35067;48.134;8.378;2022-11-11T00:37:06;4.07;;;3.30;;
49235;SDS011;35067;48.134;8.378;2022-11-11T00:39:07;5.60;;;2.73;;
49235;SDS011;35067;48.134;8.378;2022-11-11T00:41:07;6.93;;;2.93;;
49235;SDS011;35067;48.134;8.378;2022-11-11T00:43:09;3.20;;;2.60;;
49235;SDS011;35067;48.134;8.378;2022-11-11T00:45:10;26.10;;;5.97;;
49235;SDS011;35067;48.134;8.378;2022-11-11T00:47:11;11.33;;;3.80;;
49235;SDS011;35067;48.134;8.378;2022-11-11T00:49:30;6.67;;;2.93;;
49235;SDS011;35067;48.134;8.378;2022-11-11T00:51:49;8.27;;;2.93;;
49235;SDS011;35067;48.134;8.378;2022-11-11T00:53:49;4.03;;;2.80;;
49235;SDS011;35067;48.134;8.378;2022-11-11T00:55:50;4.20;;;2.70;;
49235;SDS011;35067;48.134;8.378;2022-11-11T00:57:51;3.83;;;3.10;;
49235;SDS011;35067;48.134;8.378;2022-11-11T00:59:52;5.13;;;3.37;;
49235;SDS011;35067;48.134;8.378;2022-11-11T01:01:53;5.10;;;2.90;;
49235;SDS011;35067;48.134;8.378;2022-11-11T01:03:53;3.63;;;2.60;;
49235;SDS011;35067;48.134;8.378;2022-11-11T01:05:58;5.77;;;3.30;;
49235;SDS011;35067;48.134;8.378;2022-11-11T01:08:00;5.60;;;2.43;;
49235;SDS011;35067;48.134;8.378;2022-11-11T01:10:00;4.13;;;2.73;;
49235;SDS011;35067;48.134;8.378;2022-11-11T01:12:01;4.20;;;2.90;;
49235;SDS011;35067;48.134;8.378;2022-11-11T01:14:02;3.13;;;2.30;;
49235;SDS011;35067;48.134;8.378;2022-11-11T01:16:07;5.57;;;2.60;;
49235;SDS011;35067;48.134;8.378;2022-11-11T01:18:14;3.80;;;2.33;;
49235;SDS011;35067;48.134;8.378;2022-11-11T01:20:17;3.47;;;2.13;;
49235;SDS011;35067;48.134;8.378;2022-11-11T01:22:18;6.20;;;2.50;;
49235;SDS011;35067;48.134;8.378;2022-11-11T01:24:18;3.13;;;2.37;;
49235;SDS011;35067;48.134;8.378;2022-11-11T01:26:20;6.83;;;3.37;;
49235;SDS011;35067;48.134;8.378;2022-11-11T01:28:23;5.20;;;2.37;;
49235;SDS011;35067;48.134;8.378;2022-11-11T01:30:24;3.27;;;2.00;;
49235;SDS011;35067;48.134;8.378;2022-11-11T01:32:25;3.87;;;2.47;;
49235;SDS011;35067;48.134;8.378;2022-11-11T01:34:25;3.90;;;2.47;;
49235;SDS011;35067;48.134;8.378;2022-11-11T01:36:27;2.60;;;2.07;;
49235;SDS011;35067;48.134;8.378;2022-11-11T01:38:27;2.27;;;1.90;;
49235;SDS011;35067;48.134;8.378;2022-11-11T01:40:28;4.63;;;2.47;;
49235;SDS011;35067;48.134;8.378;2022-11-11T01:42:29;5.10;;;2.80;;
49235;SDS011;35067;48.134;8.378;2022-11-11T01:44:40;4.50;;;2.60;;
49235;SDS011;35067;48.134;8.378;2022-11-11T01:46:49;5.30;;;2.50;;
49235;SDS011;35067;48.134;8.378;2022-11-11T01:48:57;4.00;;;2.53;;
49235;SDS011;35067;48.134;8.378;2022-11-11T01:53:33;3.67;;;2.33;;
49235;SDS011;35067;48.134;8.378;2022-11-11T01:55:34;3.60;;;2.20;;
49235;SDS011;35067;48.134;8.378;2022-11-11T01:59:52;3.23;;;1.90;;
49235;SDS011;35067;48.134;8.378;2022-11-11T02:01:59;3.60;;;2.50;;
49235;SDS011;35067;48.134;8.378;2022-11-11T02:04:10;13.63;;;2.50;;
49235;SDS011;35067;48.134;8.378;2022-11-11T02:06:30;5.83;;;2.70;;
49235;SDS011;35067;48.134;8.378;2022-11-11T02:08:35;2.90;;;1.90;;
49235;SDS011;35067;48.134;8.378;2022-11-11T02:10:37;5.10;;;2.40;;
49235;SDS011;35067;48.134;8.378;2022-11-11T02:12:42;2.40;;;2.20;;
49235;SDS011;35067;48.134;8.378;2022-11-11T02:15:02;4.67;;;2.60;;
49235;SDS011;35067;48.134;8.378;2022-11-11T02:17:06;3.83;;;2.20;;
49235;SDS011;35067;48.134;8.378;2022-11-11T02:19:17;3.40;;;2.27;;
49235;SDS011;35067;48.134;8.378;2022-11-11T02:21:29;2.60;;;1.87;;
49235;SDS011;35067;48.134;8.378;2022-11-11T02:23:40;4.83;;;2.17;;
49235;SDS011;35067;48.134;8.378;2022-11-11T02:25:51;4.57;;;2.43;;
49235;SDS011;35067;48.134;8.378;2022-11-11T02:27:56;4.77;;;2.20;;
49235;SDS011;35067;48.134;8.378;2022-11-11T02:30:00;6.83;;;2.23;;
49235;SDS011;35067;48.134;8.378;2022-11-11T02:32:04;3.23;;;1.80;;
49235;SDS011;35067;48.134;8.378;2022-11-11T02:34:04;4.97;;;2.40;;
49235;SDS011;35067;48.134;8.378;2022-11-11T02:36:05;5.23;;;2.27;;
49235;SDS011;35067;48.134;8.378;2022-11-11T02:38:10;16.77;;;3.50;;
49235;SDS011;35067;48.134;8.378;2022-11-11T02:40:13;8.30;;;2.67;;
49235;SDS011;35067;48.134;8.378;2022-11-11T02:42:22;14.17;;;2.90;;
49235;SDS011;35067;48.134;8.378;2022-11-11T02:44:24;13.83;;;2.90;;
49235;SDS011;35067;48.134;8.378;2022-11-11T02:46:25;51.67;;;5.20;;
49235;SDS011;35067;48.134;8.378;2022-11-11T02:48:26;28.90;;;4.40;;
49235;SDS011;35067;48.134;8.378;2022-11-11T02:50:27;10.10;;;3.13;;
49235;SDS011;35067;48.134;8.378;2022-11-11T02:52:28;15.57;;;4.17;;
49235;SDS011;35067;48.134;8.378;2022-11-11T02:54:28;4.37;;;2.30;;
49235;SDS011;35067;48.134;8.378;2022-11-11T02:56:29;5.27;;;2.87;;
49235;SDS011;35067;48.134;8.378;2022-11-11T02:58:48;3.90;;;2.60;;
49235;SDS011;35067;48.134;8.378;2022-11-11T03:00:49;4.17;;;2.17;;
49235;SDS011;35067;48.134;8.378;2022-11-11T03:02:49;4.87;;;2.90;;
49235;SDS011;35067;48.134;8.378;2022-11-11T03:04:50;3.63;;;2.60;;
49235;SDS011;35067;48.134;8.378;2022-11-11T03:06:51;4.97;;;2.23;;
49235;SDS011;35067;48.134;8.378;2022-11-11T03:08:51;2.50;;;1.90;;
49235;SDS011;35067;48.134;8.378;2022-11-11T03:10:52;3.00;;;1.70;;
49235;SDS011;35067;48.134;8.378;2022-11-11T03:12:53;3.17;;;2.20;;
49235;SDS011;35067;48.134;8.378;2022-11-11T03:14:53;2.90;;;2.10;;
49235;SDS011;35067;48.134;8.378;2022-11-11T03:16:54;2.40;;;1.80;;
49235;SDS011;35067;48.134;8.378;2022-11-11T03:19:30;2.10;;;1.70;;
49235;SDS011;35067;48.134;8.378;2022-11-11T03:21:31;2.30;;;1.90;;
49235;SDS011;35067;48.134;8.378;2022-11-11T03:23:31;2.97;;;1.73;;
49235;SDS011;35067;48.134;8.378;2022-11-11T03:25:32;3.50;;;1.93;;
49235;SDS011;35067;48.134;8.378;2022-11-11T03:27:37;1.83;;;1.53;;
49235;SDS011;35067;48.134;8.378;2022-11-11T03:29:37;3.30;;;1.83;;
49235;SDS011;35067;48.134;8.378;2022-11-11T03:31:38;3.27;;;2.10;;
49235;SDS011;35067;48.134;8.378;2022-11-11T03:33:39;3.67;;;2.20;;
49235;SDS011;35067;48.134;8.378;2022-11-11T03:35:39;3.60;;;2.33;;
49235;SDS011;35067;48.134;8.378;2022-11-11T03:37:41;4.63;;;2.47;;
49235;SDS011;35067;48.134;8.378;2022-11-11T03:40:00;4.37;;;2.03;;
49235;SDS011;35067;48.134;8.378;2022-11-11T03:42:01;3.77;;;2.37;;
49235;SDS011;35067;48.134;8.378;2022-11-11T03:44:02;2.57;;;1.93;;
49235;SDS011;35067;48.134;8.378;2022-11-11T03:46:03;4.33;;;1.93;;
49235;SDS011;35067;48.134;8.378;2022-11-11T03:48:04;2.40;;;1.93;;
49235;SDS011;35067;48.134;8.378;2022-11-11T03:50:06;2.23;;;1.73;;
49235;SDS011;35067;48.134;8.378;2022-11-11T03:52:07;2.57;;;1.80;;
49235;SDS011;35067;48.134;8.378;2022-11-11T03:54:07;2.23;;;1.77;;
49235;SDS011;35067;48.134;8.378;2022-11-11T03:56:08;5.53;;;1.80;;
49235;SDS011;35067;48.134;8.378;2022-11-11T03:58:09;2.17;;;1.60;;
49235;SDS011;35067;48.134;8.378;2022-11-11T04:00:10;8.13;;;2.00;;
49235;SDS011;35067;48.134;8.378;2022-11-11T04:02:14;3.27;;;2.10;;
49235;SDS011;35067;48.134;8.378;2022-11-11T04:04:33;3.07;;;1.77;;
49235;SDS011;35067;48.134;8.378;2022-11-11T04:06:52;2.77;;;1.60;;
49235;SDS011;35067;48.134;8.378;2022-11-11T04:09:11;3.60;;;2.30;;
49235;SDS011;35067;48.134;8.378;2022-11-11T04:11:31;2.67;;;1.83;;
49235;SDS011;35067;48.134;8.378;2022-11-11T04:13:41;3.17;;;2.17;;
49235;SDS011;35067;48.134;8.378;2022-11-11T04:16:04;3.70;;;2.00;;
49235;SDS011;35067;48.134;8.378;2022-11-11T04:18:05;4.37;;;1.77;;
49235;SDS011;35067;48.134;8.378;2022-11-11T04:20:05;3.53;;;2.20;;
49235;SDS011;35067;48.134;8.378;2022-11-11T04:22:26;2.47;;;1.93;;
49235;SDS011;35067;48.134;8.378;2022-11-11T04:24:26;2.73;;;1.93;;
49235;SDS011;35067;48.134;8.378;2022-11-11T04:26:46;3.63;;;2.20;;
49235;SDS011;35067;48.134;8.378;2022-11-11T04:28:47;4.20;;;2.00;;
49235;SDS011;35067;48.134;8.378;2022-11-11T04:31:06;2.50;;;1.80;;
49235;SDS011;35067;48.134;8.378;2022-11-11T04:33:06;3.17;;;2.17;;
49235;SDS011;35067;48.134;8.378;2022-11-11T04:35:11;3.10;;;2.00;;
49235;SDS011;35067;48.134;8.378;2022-11-11T04:37:13;3.50;;;2.27;;
49235;SDS011;35067;48.134;8.378;2022-11-11T04:39:14;3.23;;;1.93;;
49235;SDS011;35067;48.134;8.378;2022-11-11T04:41:33;2.67;;;1.97;;
49235;SDS011;35067;48.134;8.378;2022-11-11T04:43:34;3.20;;;2.17;;
49235;SDS011;35067;48.134;8.378;2022-11-11T04:45:58;2.83;;;2.20;;
49235;SDS011;35067;48.134;8.378;2022-11-11T04:50:08;3.67;;;2.00;;
49235;SDS011;35067;48.134;8.378;2022-11-11T04:52:09;3.60;;;2.27;;
49235;SDS011;35067;48.134;8.378;2022-11-11T04:54:25;3.87;;;2.17;;
49235;SDS011;35067;48.134;8.378;2022-11-11T04:56:25;2.97;;;2.03;;
49235;SDS011;35067;48.134;8.378;2022-11-11T04:58:44;2.87;;;2.17;;
49235;SDS011;35067;48.134;8.378;2022-11-11T05:00:45;2.10;;;1.80;;
49235;SDS011;35067;48.134;8.378;2022-11-11T05:02:46;2.57;;;2.20;;
49235;SDS011;35067;48.134;8.378;2022-11-11T05:05:05;3.50;;;1.70;;
49235;SDS011;35067;48.134;8.378;2022-11-11T05:07:06;3.27;;;2.10;;
49235;SDS011;35067;48.134;8.378;2022-11-11T05:09:25;5.63;;;2.03;;
49235;SDS011;35067;48.134;8.378;2022-11-11T05:11:27;2.50;;;1.87;;
49235;SDS011;35067;48.134;8.378;2022-11-11T05:13:33;2.00;;;1.53;;
49235;SDS011;35067;48.134;8.378;2022-11-11T05:15:52;2.87;;;1.80;;
49235;SDS011;35067;48.134;8.378;2022-11-11T05:18:11;3.90;;;1.80;;
49235;SDS011;35067;48.134;8.378;2022-11-11T05:20:30;2.30;;;1.70;;
49235;SDS011;35067;48.134;8.378;2022-11-11T05:22:49;2.07;;;1.67;;
49235;SDS011;35067;48.134;8.378;2022-11-11T05:24:49;2.63;;;1.87;;
49235;SDS011;35067;48.134;8.378;2022-11-11T05:27:09;1.73;;;1.50;;
49235;SDS011;35067;48.134;8.378;2022-11-11T05:29:10;2.47;;;1.90;;
49235;SDS011;35067;48.134;8.378;2022-11-11T05:31:10;2.93;;;2.10;;
49235;SDS011;35067;48.134;8.378;2022-11-11T05:33:11;4.40;;;2.23;;
49235;SDS011;35067;48.134;8.378;2022-11-11T05:35:12;5.83;;;2.90;;
49235;SDS011;35067;48.134;8.378;2022-11-11T05:37:13;5.43;;;2.57;;
49235;SDS011;35067;48.134;8.378;2022-11-11T05:39:14;5.90;;;2.97;;
49235;SDS011;35067;48.134;8.378;2022-11-11T05:41:15;8.90;;;3.50;;
49235;SDS011;35067;48.134;8.378;2022-11-11T05:43:16;4.53;;;3.03;;
49235;SDS011;35067;48.134;8.378;2022-11-11T05:45:16;5.47;;;2.97;;
49235;SDS011;35067;48.134;8.378;2022-11-11T05:47:17;3.57;;;2.63;;
49235;SDS011;35067;48.134;8.378;2022-11-11T05:49:18;4.30;;;2.63;;
49235;SDS011;35067;48.134;8.378;2022-11-11T05:51:18;3.33;;;2.50;;
49235;SDS011;35067;48.134;8.378;2022-11-11T05:53:27;4.33;;;2.30;;
49235;SDS011;35067;48.134;8.378;2022-11-11T05:55:27;3.00;;;2.60;;
49235;SDS011;35067;48.134;8.378;2022-11-11T05:57:28;9.20;;;3.90;;
49235;SDS011;35067;48.134;8.378;2022-11-11T05:59:29;3.97;;;3.00;;
49235;SDS011;35067;48.134;8.378;2022-11-11T06:01:30;3.40;;;2.60;;
49235;SDS011;35067;48.134;8.378;2022-11-11T06:03:30;4.90;;;3.00;;
49235;SDS011;35067;48.134;8.378;2022-11-11T06:05:31;3.80;;;2.93;;
49235;SDS011;35067;48.134;8.378;2022-11-11T06:07:32;5.23;;;3.30;;
49235;SDS011;35067;48.134;8.378;2022-11-11T06:09:33;3.30;;;2.83;;
49235;SDS011;35067;48.134;8.378;2022-11-11T06:11:33;3.07;;;2.50;;
49235;SDS011;35067;48.134;8.378;2022-11-11T06:13:34;9.70;;;3.10;;
49235;SDS011;35067;48.134;8.378;2022-11-11T06:15:36;3.03;;;2.47;;
49235;SDS011;35067;48.134;8.378;2022-11-11T06:17:38;2.77;;;2.57;;
49235;SDS011;35067;48.134;8.378;2022-11-11T06:19:38;3.43;;;2.37;;
49235;SDS011;35067;48.134;8.378;2022-11-11T06:21:39;3.27;;;2.67;;
49235;SDS011;35067;48.134;8.378;2022-11-11T06:23:58;3.20;;;2.50;;
49235;SDS011;35067;48.134;8.378;2022-11-11T06:25:58;4.63;;;2.40;;
49235;SDS011;35067;48.134;8.378;2022-11-11T06:28:11;6.13;;;3.47;;
49235;SDS011;35067;48.134;8.378;2022-11-11T06:30:13;6.97;;;2.90;;
49235;SDS011;35067;48.134;8.378;2022-11-11T06:32:14;5.13;;;2.53;;
49235;SDS011;35067;48.134;8.378;2022-11-11T06:34:14;4.43;;;2.53;;
49235;SDS011;35067;48.134;8.378;2022-11-11T06:36:18;2.80;;;2.40;;
49235;SDS011;35067;48.134;8.378;2022-11-11T06:38:20;5.80;;;3.23;;
49235;SDS011;35067;48.134;8.378;2022-11-11T06:40:22;3.90;;;2.00;;
49235;SDS011;35067;48.134;8.378;2022-11-11T06:42:23;6.23;;;3.90;;
49235;SDS011;35067;48.134;8.378;2022-11-11T06:44:24;6.50;;;3.80;;
49235;SDS011;35067;48.134;8.378;2022-11-11T06:46:24;17.93;;;7.03;;
49235;SDS011;35067;48.134;8.378;2022-11-11T06:48:26;53.03;;;5.57;;
49235;SDS011;35067;48.134;8.378;2022-11-11T06:50:28;21.07;;;5.57;;
49235;SDS011;35067;48.134;8.378;2022-11-11T06:52:28;44.57;;;5.80;;
49235;SDS011;35067;48.134;8.378;2022-11-11T06:54:29;12.77;;;5.10;;
49235;SDS011;35067;48.134;8.378;2022-11-11T06:56:30;6.00;;;3.83;;
49235;SDS011;35067;48.134;8.378;2022-11-11T06:58:30;6.67;;;3.87;;
49235;SDS011;35067;48.134;8.378;2022-11-11T07:00:31;8.90;;;4.23;;
49235;SDS011;35067;48.134;8.378;2022-11-11T07:02:33;5.03;;;3.20;;
49235;SDS011;35067;48.134;8.378;2022-11-11T07:04:34;4.17;;;2.80;;
49235;SDS011;35067;48.134;8.378;2022-11-11T07:06:34;4.80;;;3.30;;
49235;SDS011;35067;48.134;8.378;2022-11-11T07:08:35;10.60;;;5.50;;
49235;SDS011;35067;48.134;8.378;2022-11-11T07:10:36;7.60;;;4.63;;
49235;SDS011;35067;48.134;8.378;2022-11-11T07:12:40;9.07;;;4.70;;
49235;SDS011;35067;48.134;8.378;2022-11-11T07:14:41;7.50;;;4.20;;
49235;SDS011;35067;48.134;8.378;2022-11-11T07:16:42;11.80;;;7.40;;
49235;SDS011;35067;48.134;8.378;2022-11-11T07:18:42;9.13;;;5.40;;
49235;SDS011;35067;48.134;8.378;2022-11-11T07:20:43;7.87;;;5.20;;
49235;SDS011;35067;48.134;8.378;2022-11-11T07:22:44;10.87;;;4.93;;
49235;SDS011;35067;48.134;8.378;2022-11-11T07:24:45;8.00;;;5.10;;
49235;SDS011;35067;48.134;8.378;2022-11-11T07:26:45;9.00;;;5.57;;
49235;SDS011;35067;48.134;8.378;2022-11-11T07:28:46;8.57;;;5.73;;
49235;SDS011;35067;48.134;8.378;2022-11-11T07:30:49;9.77;;;6.27;;
49235;SDS011;35067;48.134;8.378;2022-11-11T07:32:50;5.67;;;4.60;;
49235;SDS011;35067;48.134;8.378;2022-11-11T07:34:52;6.83;;;4.03;;
49235;SDS011;35067;48.134;8.378;2022-11-11T07:36:53;7.80;;;4.87;;
49235;SDS011;35067;48.134;8.378;2022-11-11T07:38:54;8.57;;;4.20;;
49235;SDS011;35067;48.134;8.378;2022-11-11T07:40:54;7.90;;;4.43;;
49235;SDS011;35067;48.134;8.378;2022-11-11T07:42:55;6.03;;;4.10;;
49235;SDS011;35067;48.134;8.378;2022-11-11T07:44:56;5.33;;;3.50;;
49235;SDS011;35067;48.134;8.378;2022-11-11T07:46:56;4.97;;;3.40;;
49235;SDS011;35067;48.134;8.378;2022-11-11T07:48:57;4.33;;;2.60;;
49235;SDS011;35067;48.134;8.378;2022-11-11T07:50:58;3.20;;;2.30;;
49235;SDS011;35067;48.134;8.378;2022-11-11T07:52:59;4.27;;;2.73;;
49235;SDS011;35067;48.134;8.378;2022-11-11T07:55:00;6.60;;;2.80;;
49235;SDS011;35067;48.134;8.378;2022-11-11T07:57:00;4.23;;;2.60;;
49235;SDS011;35067;48.134;8.378;2022-11-11T07:59:01;6.60;;;2.97;;
49235;SDS011;35067;48.134;8.378;2022-11-11T08:01:02;3.50;;;2.50;;
49235;SDS011;35067;48.134;8.378;2022-11-11T08:03:03;11.43;;;5.17;;
49235;SDS011;35067;48.134;8.378;2022-11-11T08:05:03;26.97;;;15.60;;
49235;SDS011;35067;48.134;8.378;2022-11-11T08:07:04;26.77;;;14.90;;
49235;SDS011;35067;48.134;8.378;2022-11-11T08:09:05;14.57;;;9.20;;
49235;SDS011;35067;48.134;8.378;2022-11-11T08:11:05;21.80;;;12.27;;
49235;SDS011;35067;48.134;8.378;2022-11-11T08:13:08;19.57;;;11.00;;
49235;SDS011;35067;48.134;8.378;2022-11-11T08:15:29;19.37;;;10.77;;
49235;SDS011;35067;48.134;8.378;2022-11-11T08:17:30;13.13;;;7.47;;
49235;SDS011;35067;48.134;8.378;2022-11-11T08:19:37;8.07;;;5.47;;
49235;SDS011;35067;48.134;8.378;2022-11-11T08:21:38;9.17;;;5.90;;
49235;SDS011;35067;48.134;8.378;2022-11-11T08:23:38;8.53;;;5.77;;
49235;SDS011;35067;48.134;8.378;2022-11-11T08:25:39;9.30;;;5.83;;
49235;SDS011;35067;48.134;8.378;2022-11-11T08:27:40;7.57;;;5.50;;
49235;SDS011;35067;48.134;8.378;2022-11-11T08:29:41;8.63;;;5.60;;
49235;SDS011;35067;48.134;8.378;2022-11-11T08:31:42;7.73;;;5.00;;
49235;SDS011;35067;48.134;8.378;2022-11-11T08:33:43;6.60;;;4.80;;
49235;SDS011;35067;48.134;8.378;2022-11-11T08:35:43;6.60;;;5.03;;
49235;SDS011;35067;48.134;8.378;2022-11-11T08:37:44;6.67;;;4.90;;
49235;SDS011;35067;48.134;8.378;2022-11-11T08:39:45;4.77;;;4.20;;
49235;SDS011;35067;48.134;8.378;2022-11-11T08:41:46;5.63;;;4.10;;
49235;SDS011;35067;48.134;8.378;2022-11-11T08:43:46;5.67;;;3.70;;
49235;SDS011;35067;48.134;8.378;2022-11-11T08:45:52;10.03;;;6.80;;
49235;SDS011;35067;48.134;8.378;2022-11-11T08:47:53;28.43;;;16.73;;
49235;SDS011;35067;48.134;8.378;2022-11-11T08:49:53;17.40;;;12.03;;
49235;SDS011;35067;48.134;8.378;2022-11-11T08:51:54;26.13;;;17.70;;
49235;SDS011;35067;48.134;8.378;2022-11-11T08:53:55;27.33;;;15.80;;
49235;SDS011;35067;48.134;8.378;2022-11-11T08:55:55;20.07;;;13.47;;
49235;SDS011;35067;48.134;8.378;2022-11-11T08:57:57;19.67;;;11.37;;
49235;SDS011;35067;48.134;8.378;2022-11-11T08:59:59;14.10;;;9.00;;
49235;SDS011;35067;48.134;8.378;2022-11-11T09:01:59;16.00;;;9.80;;
49235;SDS011;35067;48.134;8.378;2022-11-11T09:04:00;13.07;;;9.00;;
49235;SDS011;35067;48.134;8.378;2022-11-11T09:06:01;15.63;;;8.73;;
49235;SDS011;35067;48.134;8.378;2022-11-11T09:08:02;12.40;;;9.50;;
49235;SDS011;35067;48.134;8.378;2022-11-11T09:10:06;13.40;;;7.93;;
49235;SDS011;35067;48.134;8.378;2022-11-11T09:12:08;9.83;;;6.73;;
49235;SDS011;35067;48.134;8.378;2022-11-11T09:14:08;13.13;;;7.70;;
49235;SDS011;35067;48.134;8.378;2022-11-11T09:16:09;11.97;;;7.43;;
49235;SDS011;35067;48.134;8.378;2022-11-11T09:18:10;17.13;;;7.20;;
49235;SDS011;35067;48.134;8.378;2022-11-11T09:20:10;11.70;;;7.37;;
49235;SDS011;35067;48.134;8.378;2022-11-11T09:22:11;10.47;;;6.83;;
49235;SDS011;35067;48.134;8.378;2022-11-11T09:24:12;12.03;;;6.87;;
49235;SDS011;35067;48.134;8.378;2022-11-11T09:26:12;9.03;;;6.30;;
49235;SDS011;35067;48.134;8.378;2022-11-11T09:28:13;6.90;;;4.17;;
49235;SDS011;35067;48.134;8.378;2022-11-11T09:30:14;4.40;;;3.20;;
49235;SDS011;35067;48.134;8.378;2022-11-11T09:32:15;2.70;;;2.27;;
49235;SDS011;35067;48.134;8.378;2022-11-11T09:34:15;2.27;;;2.07;;
49235;SDS011;35067;48.134;8.378;2022-11-11T09:36:16;7.03;;;4.27;;
49235;SDS011;35067;48.134;8.378;2022-11-11T09:38:17;20.90;;;13.07;;
49235;SDS011;35067;48.134;8.378;2022-11-11T09:40:18;14.27;;;9.73;;
49235;SDS011;35067;48.134;8.378;2022-11-11T09:42:32;9.80;;;6.90;;
49235;SDS011;35067;48.134;8.378;2022-11-11T09:49:50;1.70;;;1.00;;
49235;SDS011;35067;48.134;8.378;2022-11-11T09:54:34;1.97;;;0.90;;
49235;SDS011;35067;48.134;8.378;2022-11-11T09:56:43;0.70;;;0.70;;
49235;SDS011;35067;48.134;8.378;2022-11-11T09:58:46;1.13;;;0.87;;
49235;SDS011;35067;48.134;8.378;2022-11-11T10:01:35;0.83;;;0.80;;
49235;SDS011;35067;48.134;8.378;2022-11-11T10:03:22;1.13;;;0.90;;
49235;SDS011;35067;48.134;8.378;2022-11-11T10:05:33;1.20;;;1.10;;
49235;SDS011;35067;48.134;8.378;2022-11-11T10:07:54;1.47;;;0.80;;
49235;SDS011;35067;48.134;8.378;2022-11-11T10:10:17;1.00;;;0.90;;
49235;SDS011;35067;48.134;8.378;2022-11-11T10:12:26;1.27;;;0.80;;
49235;SDS011;35067;48.134;8.378;2022-11-11T10:14:39;0.90;;;0.90;;
49235;SDS011;35067;48.134;8.378;2022-11-11T10:21:51;1.27;;;0.90;;
49235;SDS011;35067;48.134;8.378;2022-11-11T10:23:58;1.90;;;1.00;;
49235;SDS011;35067;48.134;8.378;2022-11-11T10:26:01;1.40;;;0.97;;
49235;SDS011;35067;48.134;8.378;2022-11-11T10:28:20;1.77;;;1.10;;
49235;SDS011;35067;48.134;8.378;2022-11-11T10:30:25;1.20;;;1.10;;
49235;SDS011;35067;48.134;8.378;2022-11-11T10:32:31;1.10;;;1.00;;
49235;SDS011;35067;48.134;8.378;2022-11-11T10:34:33;2.07;;;0.90;;
49235;SDS011;35067;48.134;8.378;2022-11-11T10:36:49;0.90;;;0.90;;
49235;SDS011;35067;48.134;8.378;2022-11-11T10:39:13;1.23;;;1.10;;
49235;SDS011;35067;48.134;8.378;2022-11-11T10:41:37;1.07;;;0.90;;
49235;SDS011;35067;48.134;8.378;2022-11-11T10:43:49;1.10;;;1.00;;
49235;SDS011;35067;48.134;8.378;2022-11-11T10:48:01;2.17;;;0.80;;
49235;SDS011;35067;48.134;8.378;2022-11-11T10:50:17;1.00;;;1.00;;
49235;SDS011;35067;48.134;8.378;2022-11-11T10:52:26;1.00;;;1.00;;
49235;SDS011;35067;48.134;8.378;2022-11-11T10:57:09;3.33;;;1.00;;
49235;SDS011;35067;48.134;8.378;2022-11-11T10:59:23;2.63;;;0.97;;
49235;SDS011;35067;48.134;8.378;2022-11-11T11:01:33;1.07;;;0.97;;
49235;SDS011;35067;48.134;8.378;2022-11-11T11:03:46;1.27;;;1.17;;
49235;SDS011;35067;48.134;8.378;2022-11-11T11:08:25;2.47;;;1.10;;
49235;SDS011;35067;48.134;8.378;2022-11-11T11:10:37;0.90;;;0.90;;
49235;SDS011;35067;48.134;8.378;2022-11-11T11:12:55;1.30;;;1.00;;
49235;SDS011;35067;48.134;8.378;2022-11-11T11:15:21;3.07;;;1.20;;
49235;SDS011;35067;48.134;8.378;2022-11-11T11:17:26;1.20;;;1.10;;
49235;SDS011;35067;48.134;8.378;2022-11-11T11:19:35;1.20;;;1.10;;
49235;SDS011;35067;48.134;8.378;2022-11-11T11:23:54;1.00;;;1.00;;
49235;SDS011;35067;48.134;8.378;2022-11-11T11:25:55;1.73;;;1.20;;
49235;SDS011;35067;48.134;8.378;2022-11-11T11:30:12;2.13;;;1.00;;
49235;SDS011;35067;48.134;8.378;2022-11-11T11:32:27;1.83;;;1.20;;
49235;SDS011;35067;48.134;8.378;2022-11-11T11:34:40;1.20;;;1.10;;
49235;SDS011;35067;48.134;8.378;2022-11-11T11:36:59;2.00;;;1.20;;
49235;SDS011;35067;48.134;8.378;2022-11-11T11:39:00;3.13;;;1.30;;
49235;SDS011;35067;48.134;8.378;2022-11-11T11:41:01;1.87;;;1.10;;
49235;SDS011;35067;48.134;8.378;2022-11-11T11:43:02;1.00;;;1.00;;
49235;SDS011;35067;48.134;8.378;2022-11-11T11:45:34;2.30;;;1.90;;
49235;SDS011;35067;48.134;8.378;2022-11-11T11:47:44;3.00;;;1.20;;
49235;SDS011;35067;48.134;8.378;2022-11-11T11:50:44;1.60;;;1.50;;
49235;SDS011;35067;48.134;8.378;2022-11-11T11:55:21;2.53;;;1.70;;
49235;SDS011;35067;48.134;8.378;2022-11-11T11:57:37;3.60;;;1.77;;
49235;SDS011;35067;48.134;8.378;2022-11-11T11:59:46;2.10;;;1.90;;
49235;SDS011;35067;48.134;8.378;2022-11-11T12:02:03;4.87;;;3.37;;
49235;SDS011;35067;48.134;8.378;2022-11-11T12:07:19;2.30;;;1.93;;
49235;SDS011;35067;48.134;8.378;2022-11-11T12:19:27;2.97;;;1.93;;
49235;SDS011;35067;48.134;8.378;2022-11-11T12:24:33;2.93;;;2.43;;
49235;SDS011;35067;48.134;8.378;2022-11-11T12:27:04;3.03;;;2.30;;
49235;SDS011;35067;48.134;8.378;2022-11-11T12:38:49;2.70;;;2.43;;
49235;SDS011;35067;48.134;8.378;2022-11-11T12:41:24;2.93;;;2.20;;
49235;SDS011;35067;48.134;8.378;2022-11-11T12:43:48;3.20;;;2.90;;
49235;SDS011;35067;48.134;8.378;2022-11-11T12:46:20;3.13;;;2.63;;
49235;SDS011;35067;48.134;8.378;2022-11-11T12:51:04;3.73;;;2.50;;
49235;SDS011;35067;48.134;8.378;2022-11-11T12:53:36;3.53;;;3.10;;
49235;SDS011;35067;48.134;8.378;2022-11-11T13:09:05;5.23;;;3.80;;
49235;SDS011;35067;48.134;8.378;2022-11-11T13:15:57;4.47;;;3.87;;
49235;SDS011;35067;48.134;8.378;2022-11-11T13:17:58;5.13;;;3.93;;
49235;SDS011;35067;48.134;8.378;2022-11-11T13:22:43;3.90;;;3.50;;
49235;SDS011;35067;48.134;8.378;2022-11-11T13:24:49;5.07;;;3.93;;
49235;SDS011;35067;48.134;8.378;2022-11-11T13:26:53;6.13;;;4.43;;
49235;SDS011;35067;48.134;8.378;2022-11-11T13:31:46;5.07;;;4.17;;
49235;SDS011;35067;48.134;8.378;2022-11-11T13:33:51;6.10;;;4.33;;
49235;SDS011;35067;48.134;8.378;2022-11-11T13:35:58;5.43;;;4.57;;
49235;SDS011;35067;48.134;8.378;2022-11-11T13:38:02;5.03;;;4.43;;
49235;SDS011;35067;48.134;8.378;2022-11-11T13:40:06;6.00;;;4.70;;
49235;SDS011;35067;48.134;8.378;2022-11-11T13:42:09;5.37;;;4.77;;
49235;SDS011;35067;48.134;8.378;2022-11-11T13:44:21;5.63;;;5.00;;
49235;SDS011;35067;48.134;8.378;2022-11-11T13:46:50;6.33;;;5.07;;
49235;SDS011;35067;48.134;8.378;2022-11-11T13:48:51;6.80;;;5.17;;
49235;SDS011;35067;48.134;8.378;2022-11-11T13:50:52;5.37;;;4.63;;
49235;SDS011;35067;48.134;8.378;2022-11-11T13:53:30;5.40;;;4.83;;
49235;SDS011;35067;48.134;8.378;2022-11-11T13:55:41;6.83;;;4.47;;
49235;SDS011;35067;48.134;8.378;2022-11-11T13:57:47;5.37;;;4.83;;
49235;SDS011;35067;48.134;8.378;2022-11-11T14:00:01;4.83;;;4.33;;
49235;SDS011;35067;48.134;8.378;2022-11-11T14:04:21;4.63;;;4.07;;